sensor_id;sensor_type;location;lat;lon;timestamp;P1;durP1;ratioP1;P2;durP2;ratioP2
2784;SDS011;57944;48.722;9.316;2022-07-29T00:02:03;28.30;;;18.87;;
2784;SDS011;57944;48.722;9.316;2022-07-29T00:04:36;19.93;;;17.77;;
2784;SDS011;57944;48.722;9.316;2022-07-29T00:07:06;22.53;;;18.90;;
2784;SDS011;57944;48.722;9.316;2022-07-29T00:09:39;19.80;;;17.57;;
2784;SDS011;57944;48.722;9.316;2022-07-29T00:12:17;21.57;;;19.27;;
2784;SDS011;57944;48.722;9.316;2022-07-29T00:14:52;22.40;;;20.10;;
2784;SDS011;57944;48.722;9.316;2022-07-29T00:17:24;23.47;;;19.40;;
2784;SDS011;57944;48.722;9.316;2022-07-29T00:19:56;23.90;;;20.60;;
2784;SDS011;57944;48.722;9.316;2022-07-29T00:22:26;22.33;;;19.80;;
2784;SDS011;57944;48.722;9.316;2022-07-29T00:24:57;23.23;;;20.83;;
2784;SDS011;57944;48.722;9.316;2022-07-29T00:27:27;23.87;;;18.87;;
2784;SDS011;57944;48.722;9.316;2022-07-29T00:29:57;22.57;;;19.20;;
2784;SDS011;57944;48.722;9.316;2022-07-29T00:32:27;23.83;;;18.77;;
2784;SDS011;57944;48.722;9.316;2022-07-29T00:34:59;19.33;;;16.70;;
2784;SDS011;57944;48.722;9.316;2022-07-29T00:37:42;24.67;;;19.53;;
2784;SDS011;57944;48.722;9.316;2022-07-29T00:40:13;23.47;;;19.37;;
2784;SDS011;57944;48.722;9.316;2022-07-29T00:42:43;20.87;;;18.77;;
2784;SDS011;57944;48.722;9.316;2022-07-29T00:45:14;21.00;;;18.77;;
2784;SDS011;57944;48.722;9.316;2022-07-29T00:47:45;22.53;;;19.57;;
2784;SDS011;57944;48.722;9.316;2022-07-29T00:50:17;21.13;;;19.03;;
2784;SDS011;57944;48.722;9.316;2022-07-29T00:52:48;27.43;;;20.70;;
2784;SDS011;57944;48.722;9.316;2022-07-29T00:55:19;24.60;;;20.10;;
2784;SDS011;57944;48.722;9.316;2022-07-29T00:57:50;23.17;;;20.47;;
2784;SDS011;57944;48.722;9.316;2022-07-29T01:00:22;25.70;;;22.23;;
2784;SDS011;57944;48.722;9.316;2022-07-29T01:02:55;26.73;;;21.23;;
2784;SDS011;57944;48.722;9.316;2022-07-29T01:05:29;24.30;;;21.70;;
2784;SDS011;57944;48.722;9.316;2022-07-29T01:08:17;26.07;;;21.30;;
2784;SDS011;57944;48.722;9.316;2022-07-29T01:10:49;26.53;;;22.27;;
2784;SDS011;57944;48.722;9.316;2022-07-29T01:13:22;29.07;;;24.03;;
2784;SDS011;57944;48.722;9.316;2022-07-29T01:15:54;26.47;;;23.47;;
2784;SDS011;57944;48.722;9.316;2022-07-29T01:18:44;29.70;;;24.20;;
2784;SDS011;57944;48.722;9.316;2022-07-29T01:21:27;25.93;;;23.20;;
2784;SDS011;57944;48.722;9.316;2022-07-29T01:27:38;26.10;;;22.80;;
2784;SDS011;57944;48.722;9.316;2022-07-29T01:30:31;28.53;;;23.27;;
2784;SDS011;57944;48.722;9.316;2022-07-29T01:33:06;33.43;;;25.73;;
2784;SDS011;57944;48.722;9.316;2022-07-29T01:36:05;30.50;;;24.30;;
2784;SDS011;57944;48.722;9.316;2022-07-29T01:38:43;27.17;;;23.40;;
2784;SDS011;57944;48.722;9.316;2022-07-29T01:41:36;29.37;;;23.07;;
2784;SDS011;57944;48.722;9.316;2022-07-29T01:44:12;29.27;;;23.63;;
2784;SDS011;57944;48.722;9.316;2022-07-29T01:46:52;31.57;;;24.10;;
2784;SDS011;57944;48.722;9.316;2022-07-29T01:49:28;29.27;;;23.60;;
2784;SDS011;57944;48.722;9.316;2022-07-29T01:52:07;30.00;;;22.77;;
2784;SDS011;57944;48.722;9.316;2022-07-29T01:54:45;35.70;;;27.10;;
2784;SDS011;57944;48.722;9.316;2022-07-29T01:57:24;25.27;;;22.57;;
2784;SDS011;57944;48.722;9.316;2022-07-29T01:59:58;27.13;;;22.23;;
2784;SDS011;57944;48.722;9.316;2022-07-29T02:02:40;31.73;;;23.40;;
2784;SDS011;57944;48.722;9.316;2022-07-29T02:05:14;28.57;;;24.20;;
2784;SDS011;57944;48.722;9.316;2022-07-29T02:07:48;25.23;;;22.33;;
2784;SDS011;57944;48.722;9.316;2022-07-29T02:10:22;22.80;;;20.40;;
2784;SDS011;57944;48.722;9.316;2022-07-29T02:12:57;28.20;;;18.23;;
2784;SDS011;57944;48.722;9.316;2022-07-29T02:15:30;22.67;;;18.57;;
2784;SDS011;57944;48.722;9.316;2022-07-29T02:18:06;19.77;;;17.43;;
2784;SDS011;57944;48.722;9.316;2022-07-29T02:20:42;20.40;;;18.13;;
2784;SDS011;57944;48.722;9.316;2022-07-29T02:23:17;23.30;;;19.07;;
2784;SDS011;57944;48.722;9.316;2022-07-29T02:25:51;24.53;;;18.70;;
2784;SDS011;57944;48.722;9.316;2022-07-29T02:28:25;22.03;;;19.73;;
2784;SDS011;57944;48.722;9.316;2022-07-29T02:31:00;24.40;;;19.23;;
2784;SDS011;57944;48.722;9.316;2022-07-29T02:33:35;22.27;;;19.67;;
2784;SDS011;57944;48.722;9.316;2022-07-29T02:36:10;27.53;;;22.00;;
2784;SDS011;57944;48.722;9.316;2022-07-29T02:38:40;21.73;;;19.37;;
2784;SDS011;57944;48.722;9.316;2022-07-29T02:41:20;26.27;;;21.20;;
2784;SDS011;57944;48.722;9.316;2022-07-29T02:43:57;26.90;;;22.00;;
2784;SDS011;57944;48.722;9.316;2022-07-29T02:46:34;30.40;;;24.50;;
2784;SDS011;57944;48.722;9.316;2022-07-29T02:49:15;27.10;;;24.23;;
2784;SDS011;57944;48.722;9.316;2022-07-29T02:51:57;31.13;;;24.00;;
2784;SDS011;57944;48.722;9.316;2022-07-29T02:54:33;33.43;;;26.40;;
2784;SDS011;57944;48.722;9.316;2022-07-29T02:57:11;29.60;;;23.93;;
2784;SDS011;57944;48.722;9.316;2022-07-29T02:59:50;27.93;;;22.80;;
2784;SDS011;57944;48.722;9.316;2022-07-29T03:02:25;28.10;;;21.60;;
2784;SDS011;57944;48.722;9.316;2022-07-29T03:05:01;28.90;;;23.60;;
2784;SDS011;57944;48.722;9.316;2022-07-29T03:07:35;31.50;;;23.47;;
2784;SDS011;57944;48.722;9.316;2022-07-29T03:10:08;25.80;;;22.33;;
2784;SDS011;57944;48.722;9.316;2022-07-29T03:12:39;24.97;;;21.33;;
2784;SDS011;57944;48.722;9.316;2022-07-29T03:15:10;28.33;;;24.50;;
2784;SDS011;57944;48.722;9.316;2022-07-29T03:17:41;31.73;;;25.10;;
2784;SDS011;57944;48.722;9.316;2022-07-29T03:20:15;28.23;;;22.57;;
2784;SDS011;57944;48.722;9.316;2022-07-29T03:22:46;24.60;;;22.00;;
2784;SDS011;57944;48.722;9.316;2022-07-29T03:25:17;28.13;;;23.53;;
2784;SDS011;57944;48.722;9.316;2022-07-29T03:27:49;26.27;;;21.80;;
2784;SDS011;57944;48.722;9.316;2022-07-29T03:30:19;24.27;;;21.67;;
2784;SDS011;57944;48.722;9.316;2022-07-29T03:32:49;29.63;;;23.23;;
2784;SDS011;57944;48.722;9.316;2022-07-29T03:35:26;29.10;;;22.53;;
2784;SDS011;57944;48.722;9.316;2022-07-29T03:37:58;27.97;;;23.17;;
2784;SDS011;57944;48.722;9.316;2022-07-29T03:40:30;27.03;;;22.00;;
2784;SDS011;57944;48.722;9.316;2022-07-29T03:43:11;25.73;;;22.33;;
2784;SDS011;57944;48.722;9.316;2022-07-29T03:45:45;29.70;;;22.60;;
2784;SDS011;57944;48.722;9.316;2022-07-29T03:48:21;23.60;;;21.00;;
2784;SDS011;57944;48.722;9.316;2022-07-29T03:50:58;25.43;;;20.50;;
2784;SDS011;57944;48.722;9.316;2022-07-29T03:53:28;24.70;;;20.00;;
2784;SDS011;57944;48.722;9.316;2022-07-29T03:55:59;21.00;;;18.80;;
2784;SDS011;57944;48.722;9.316;2022-07-29T03:58:32;23.30;;;19.77;;
2784;SDS011;57944;48.722;9.316;2022-07-29T04:01:03;27.10;;;21.33;;
2784;SDS011;57944;48.722;9.316;2022-07-29T04:03:33;27.77;;;22.90;;
2784;SDS011;57944;48.722;9.316;2022-07-29T04:06:07;24.63;;;21.00;;
2784;SDS011;57944;48.722;9.316;2022-07-29T04:08:37;26.57;;;22.10;;
2784;SDS011;57944;48.722;9.316;2022-07-29T04:11:07;27.90;;;23.27;;
2784;SDS011;57944;48.722;9.316;2022-07-29T04:13:37;29.13;;;23.33;;
2784;SDS011;57944;48.722;9.316;2022-07-29T04:16:07;29.40;;;23.30;;
2784;SDS011;57944;48.722;9.316;2022-07-29T04:18:38;29.00;;;23.33;;
2784;SDS011;57944;48.722;9.316;2022-07-29T04:21:10;31.10;;;24.53;;
2784;SDS011;57944;48.722;9.316;2022-07-29T04:23:40;31.27;;;24.50;;
2784;SDS011;57944;48.722;9.316;2022-07-29T04:26:19;29.03;;;22.77;;
2784;SDS011;57944;48.722;9.316;2022-07-29T04:28:50;31.33;;;26.30;;
2784;SDS011;57944;48.722;9.316;2022-07-29T04:31:19;28.30;;;25.17;;
2784;SDS011;57944;48.722;9.316;2022-07-29T04:33:51;40.30;;;25.33;;
2784;SDS011;57944;48.722;9.316;2022-07-29T04:36:24;30.20;;;24.00;;
2784;SDS011;57944;48.722;9.316;2022-07-29T04:38:55;30.73;;;24.70;;
2784;SDS011;57944;48.722;9.316;2022-07-29T04:41:25;36.43;;;27.87;;
2784;SDS011;57944;48.722;9.316;2022-07-29T04:43:58;30.57;;;25.30;;
2784;SDS011;57944;48.722;9.316;2022-07-29T04:46:32;33.77;;;26.57;;
2784;SDS011;57944;48.722;9.316;2022-07-29T04:49:03;33.57;;;26.27;;
2784;SDS011;57944;48.722;9.316;2022-07-29T04:51:36;30.90;;;24.67;;
2784;SDS011;57944;48.722;9.316;2022-07-29T04:54:06;28.23;;;22.30;;
2784;SDS011;57944;48.722;9.316;2022-07-29T04:56:36;29.30;;;21.50;;
2784;SDS011;57944;48.722;9.316;2022-07-29T04:59:06;23.77;;;20.80;;
2784;SDS011;57944;48.722;9.316;2022-07-29T05:01:38;24.93;;;21.47;;
2784;SDS011;57944;48.722;9.316;2022-07-29T05:04:08;26.10;;;22.77;;
2784;SDS011;57944;48.722;9.316;2022-07-29T05:06:42;24.10;;;21.00;;
2784;SDS011;57944;48.722;9.316;2022-07-29T05:09:12;27.10;;;22.07;;
2784;SDS011;57944;48.722;9.316;2022-07-29T05:11:42;20.97;;;18.77;;
2784;SDS011;57944;48.722;9.316;2022-07-29T05:14:12;26.93;;;19.67;;
2784;SDS011;57944;48.722;9.316;2022-07-29T05:16:42;19.13;;;15.90;;
2784;SDS011;57944;48.722;9.316;2022-07-29T05:19:13;13.93;;;12.27;;
2784;SDS011;57944;48.722;9.316;2022-07-29T05:21:46;15.23;;;11.83;;
2784;SDS011;57944;48.722;9.316;2022-07-29T05:24:16;12.40;;;11.10;;
2784;SDS011;57944;48.722;9.316;2022-07-29T05:26:46;12.67;;;10.40;;
2784;SDS011;57944;48.722;9.316;2022-07-29T05:29:17;11.90;;;9.10;;
2784;SDS011;57944;48.722;9.316;2022-07-29T05:32:07;12.17;;;9.87;;
2784;SDS011;57944;48.722;9.316;2022-07-29T05:34:37;9.80;;;8.80;;
2784;SDS011;57944;48.722;9.316;2022-07-29T05:37:19;11.47;;;9.80;;
2784;SDS011;57944;48.722;9.316;2022-07-29T05:39:50;9.70;;;8.53;;
2784;SDS011;57944;48.722;9.316;2022-07-29T05:42:22;14.50;;;9.30;;
2784;SDS011;57944;48.722;9.316;2022-07-29T05:44:53;9.60;;;8.60;;
2784;SDS011;57944;48.722;9.316;2022-07-29T05:47:23;10.43;;;8.43;;
2784;SDS011;57944;48.722;9.316;2022-07-29T05:49:53;14.43;;;9.40;;
2784;SDS011;57944;48.722;9.316;2022-07-29T05:52:26;10.10;;;8.63;;
2784;SDS011;57944;48.722;9.316;2022-07-29T05:54:56;12.13;;;7.37;;
2784;SDS011;57944;48.722;9.316;2022-07-29T05:57:29;9.70;;;8.10;;
2784;SDS011;57944;48.722;9.316;2022-07-29T05:59:59;13.37;;;8.60;;
2784;SDS011;57944;48.722;9.316;2022-07-29T06:02:37;8.73;;;7.67;;
2784;SDS011;57944;48.722;9.316;2022-07-29T06:05:07;10.60;;;6.63;;
2784;SDS011;57944;48.722;9.316;2022-07-29T06:07:45;8.37;;;7.57;;
2784;SDS011;57944;48.722;9.316;2022-07-29T06:10:16;7.30;;;6.60;;
2784;SDS011;57944;48.722;9.316;2022-07-29T06:12:52;9.47;;;7.97;;
2784;SDS011;57944;48.722;9.316;2022-07-29T06:15:22;9.20;;;7.07;;
2784;SDS011;57944;48.722;9.316;2022-07-29T06:17:52;10.07;;;8.40;;
2784;SDS011;57944;48.722;9.316;2022-07-29T06:20:26;10.70;;;8.73;;
2784;SDS011;57944;48.722;9.316;2022-07-29T06:22:59;9.23;;;8.33;;
2784;SDS011;57944;48.722;9.316;2022-07-29T06:25:31;12.63;;;7.70;;
2784;SDS011;57944;48.722;9.316;2022-07-29T06:28:03;8.70;;;7.50;;
2784;SDS011;57944;48.722;9.316;2022-07-29T06:30:33;9.37;;;7.83;;
2784;SDS011;57944;48.722;9.316;2022-07-29T06:33:03;8.40;;;6.30;;
2784;SDS011;57944;48.722;9.316;2022-07-29T06:35:33;11.30;;;6.90;;
2784;SDS011;57944;48.722;9.316;2022-07-29T06:38:10;6.93;;;6.23;;
2784;SDS011;57944;48.722;9.316;2022-07-29T06:40:58;6.97;;;5.80;;
2784;SDS011;57944;48.722;9.316;2022-07-29T06:43:30;6.67;;;5.97;;
2784;SDS011;57944;48.722;9.316;2022-07-29T06:46:17;9.90;;;5.83;;
2784;SDS011;57944;48.722;9.316;2022-07-29T06:48:49;6.50;;;5.87;;
2784;SDS011;57944;48.722;9.316;2022-07-29T06:51:21;6.97;;;6.27;;
2784;SDS011;57944;48.722;9.316;2022-07-29T06:53:54;6.83;;;6.13;;
2784;SDS011;57944;48.722;9.316;2022-07-29T06:56:29;11.97;;;6.40;;
2784;SDS011;57944;48.722;9.316;2022-07-29T06:59:05;10.37;;;6.03;;
2784;SDS011;57944;48.722;9.316;2022-07-29T07:01:36;6.43;;;5.83;;
2784;SDS011;57944;48.722;9.316;2022-07-29T07:04:08;8.50;;;5.77;;
2784;SDS011;57944;48.722;9.316;2022-07-29T07:06:40;5.87;;;5.20;;
2784;SDS011;57944;48.722;9.316;2022-07-29T07:09:12;6.23;;;5.47;;
2784;SDS011;57944;48.722;9.316;2022-07-29T07:11:42;9.90;;;6.30;;
2784;SDS011;57944;48.722;9.316;2022-07-29T07:14:15;8.00;;;5.50;;
2784;SDS011;57944;48.722;9.316;2022-07-29T07:16:46;6.50;;;5.60;;
2784;SDS011;57944;48.722;9.316;2022-07-29T07:19:19;6.50;;;4.90;;
2784;SDS011;57944;48.722;9.316;2022-07-29T07:21:49;15.30;;;7.00;;
2784;SDS011;57944;48.722;9.316;2022-07-29T07:24:23;8.23;;;5.57;;
2784;SDS011;57944;48.722;9.316;2022-07-29T07:26:53;8.13;;;5.87;;
2784;SDS011;57944;48.722;9.316;2022-07-29T07:29:23;7.77;;;5.63;;
2784;SDS011;57944;48.722;9.316;2022-07-29T07:31:53;11.50;;;7.77;;
2784;SDS011;57944;48.722;9.316;2022-07-29T07:34:26;7.40;;;5.50;;
2784;SDS011;57944;48.722;9.316;2022-07-29T07:36:56;10.03;;;6.93;;
2784;SDS011;57944;48.722;9.316;2022-07-29T07:39:29;7.40;;;6.30;;
2784;SDS011;57944;48.722;9.316;2022-07-29T07:41:59;6.63;;;5.87;;
2784;SDS011;57944;48.722;9.316;2022-07-29T07:44:29;9.17;;;5.83;;
2784;SDS011;57944;48.722;9.316;2022-07-29T07:47:19;7.60;;;5.97;;
2784;SDS011;57944;48.722;9.316;2022-07-29T07:49:53;28.13;;;7.23;;
2784;SDS011;57944;48.722;9.316;2022-07-29T07:52:23;10.80;;;7.40;;
2784;SDS011;57944;48.722;9.316;2022-07-29T07:54:56;9.10;;;6.70;;
2784;SDS011;57944;48.722;9.316;2022-07-29T07:57:26;8.80;;;7.90;;
2784;SDS011;57944;48.722;9.316;2022-07-29T07:59:56;8.80;;;6.27;;
2784;SDS011;57944;48.722;9.316;2022-07-29T08:02:26;7.30;;;6.13;;
2784;SDS011;57944;48.722;9.316;2022-07-29T08:04:56;6.30;;;5.70;;
2784;SDS011;57944;48.722;9.316;2022-07-29T08:07:26;7.30;;;6.60;;
2784;SDS011;57944;48.722;9.316;2022-07-29T08:09:59;7.93;;;6.30;;
2784;SDS011;57944;48.722;9.316;2022-07-29T08:12:29;9.60;;;7.10;;
2784;SDS011;57944;48.722;9.316;2022-07-29T08:14:59;6.60;;;5.80;;
2784;SDS011;57944;48.722;9.316;2022-07-29T08:17:29;15.93;;;7.13;;
2784;SDS011;57944;48.722;9.316;2022-07-29T08:20:00;6.97;;;6.13;;
2784;SDS011;57944;48.722;9.316;2022-07-29T08:22:30;9.17;;;6.63;;
2784;SDS011;57944;48.722;9.316;2022-07-29T08:25:03;7.37;;;6.30;;
2784;SDS011;57944;48.722;9.316;2022-07-29T08:27:35;8.23;;;6.60;;
2784;SDS011;57944;48.722;9.316;2022-07-29T08:30:10;9.70;;;6.83;;
2784;SDS011;57944;48.722;9.316;2022-07-29T08:32:41;10.40;;;7.57;;
2784;SDS011;57944;48.722;9.316;2022-07-29T08:35:20;9.53;;;7.77;;
2784;SDS011;57944;48.722;9.316;2022-07-29T08:37:55;11.40;;;7.10;;
2784;SDS011;57944;48.722;9.316;2022-07-29T08:40:29;8.10;;;5.87;;
2784;SDS011;57944;48.722;9.316;2022-07-29T08:43:03;9.40;;;6.80;;
2784;SDS011;57944;48.722;9.316;2022-07-29T08:45:39;8.47;;;6.47;;
2784;SDS011;57944;48.722;9.316;2022-07-29T08:48:14;9.13;;;8.23;;
2784;SDS011;57944;48.722;9.316;2022-07-29T08:50:47;7.73;;;6.50;;
2784;SDS011;57944;48.722;9.316;2022-07-29T08:53:21;9.43;;;6.80;;
2784;SDS011;57944;48.722;9.316;2022-07-29T08:55:58;9.00;;;6.97;;
2784;SDS011;57944;48.722;9.316;2022-07-29T08:58:31;12.30;;;7.20;;
2784;SDS011;57944;48.722;9.316;2022-07-29T09:01:04;8.10;;;7.30;;
2784;SDS011;57944;48.722;9.316;2022-07-29T09:03:39;15.00;;;7.47;;
2784;SDS011;57944;48.722;9.316;2022-07-29T09:06:12;21.63;;;7.50;;
2784;SDS011;57944;48.722;9.316;2022-07-29T09:08:44;10.27;;;8.00;;
2784;SDS011;57944;48.722;9.316;2022-07-29T09:11:17;12.60;;;7.30;;
2784;SDS011;57944;48.722;9.316;2022-07-29T09:13:47;10.80;;;8.43;;
2784;SDS011;57944;48.722;9.316;2022-07-29T09:16:18;8.63;;;7.73;;
2784;SDS011;57944;48.722;9.316;2022-07-29T09:19:10;11.10;;;7.73;;
2784;SDS011;57944;48.722;9.316;2022-07-29T09:21:53;9.40;;;7.93;;
2784;SDS011;57944;48.722;9.316;2022-07-29T09:24:39;10.57;;;7.30;;
2784;SDS011;57944;48.722;9.316;2022-07-29T09:27:18;9.90;;;7.10;;
2784;SDS011;57944;48.722;9.316;2022-07-29T09:29:56;8.07;;;7.37;;
2784;SDS011;57944;48.722;9.316;2022-07-29T09:32:29;8.23;;;7.07;;
2784;SDS011;57944;48.722;9.316;2022-07-29T09:35:15;8.10;;;7.30;;
2784;SDS011;57944;48.722;9.316;2022-07-29T09:37:47;8.00;;;6.53;;
2784;SDS011;57944;48.722;9.316;2022-07-29T09:40:18;13.90;;;7.80;;
2784;SDS011;57944;48.722;9.316;2022-07-29T09:42:53;8.97;;;8.07;;
2784;SDS011;57944;48.722;9.316;2022-07-29T09:45:28;8.37;;;6.57;;
2784;SDS011;57944;48.722;9.316;2022-07-29T09:48:12;8.33;;;7.37;;
2784;SDS011;57944;48.722;9.316;2022-07-29T09:50:44;9.60;;;7.13;;
2784;SDS011;57944;48.722;9.316;2022-07-29T09:53:29;8.00;;;7.20;;
2784;SDS011;57944;48.722;9.316;2022-07-29T09:56:03;7.93;;;7.10;;
2784;SDS011;57944;48.722;9.316;2022-07-29T09:58:39;9.77;;;8.17;;
2784;SDS011;57944;48.722;9.316;2022-07-29T10:01:09;7.30;;;6.57;;
2784;SDS011;57944;48.722;9.316;2022-07-29T10:03:50;8.27;;;7.47;;
2784;SDS011;57944;48.722;9.316;2022-07-29T10:06:20;9.43;;;8.63;;
2784;SDS011;57944;48.722;9.316;2022-07-29T10:08:51;9.10;;;7.43;;
2784;SDS011;57944;48.722;9.316;2022-07-29T10:11:21;8.27;;;7.43;;
2784;SDS011;57944;48.722;9.316;2022-07-29T10:14:14;9.83;;;8.07;;
2784;SDS011;57944;48.722;9.316;2022-07-29T10:16:45;9.47;;;7.77;;
2784;SDS011;57944;48.722;9.316;2022-07-29T10:19:15;8.50;;;7.10;;
2784;SDS011;57944;48.722;9.316;2022-07-29T10:21:46;9.63;;;8.03;;
2784;SDS011;57944;48.722;9.316;2022-07-29T10:24:23;10.97;;;8.23;;
2784;SDS011;57944;48.722;9.316;2022-07-29T10:26:56;14.97;;;8.00;;
2784;SDS011;57944;48.722;9.316;2022-07-29T10:29:31;8.43;;;7.63;;
2784;SDS011;57944;48.722;9.316;2022-07-29T10:32:11;9.13;;;7.57;;
2784;SDS011;57944;48.722;9.316;2022-07-29T10:35:11;7.93;;;7.13;;
2784;SDS011;57944;48.722;9.316;2022-07-29T10:38:05;9.07;;;8.17;;
2784;SDS011;57944;48.722;9.316;2022-07-29T10:41:07;9.27;;;8.37;;
2784;SDS011;57944;48.722;9.316;2022-07-29T10:44:12;11.13;;;8.13;;
2784;SDS011;57944;48.722;9.316;2022-07-29T10:46:51;12.63;;;8.10;;
2784;SDS011;57944;48.722;9.316;2022-07-29T10:49:23;8.40;;;7.70;;
2784;SDS011;57944;48.722;9.316;2022-07-29T10:51:57;9.00;;;8.10;;
2784;SDS011;57944;48.722;9.316;2022-07-29T10:54:41;8.67;;;7.83;;
2784;SDS011;57944;48.722;9.316;2022-07-29T10:57:21;9.83;;;8.83;;
2784;SDS011;57944;48.722;9.316;2022-07-29T11:00:30;8.63;;;7.80;;
2784;SDS011;57944;48.722;9.316;2022-07-29T11:03:04;9.27;;;8.40;;
2784;SDS011;57944;48.722;9.316;2022-07-29T11:05:52;8.30;;;7.60;;
2784;SDS011;57944;48.722;9.316;2022-07-29T11:08:25;11.27;;;7.97;;
2784;SDS011;57944;48.722;9.316;2022-07-29T11:14:03;9.33;;;7.93;;
2784;SDS011;57944;48.722;9.316;2022-07-29T11:19:34;8.47;;;7.63;;
2784;SDS011;57944;48.722;9.316;2022-07-29T11:22:31;12.40;;;9.47;;
2784;SDS011;57944;48.722;9.316;2022-07-29T11:25:14;10.03;;;8.13;;
2784;SDS011;57944;48.722;9.316;2022-07-29T11:28:08;10.03;;;7.63;;
2784;SDS011;57944;48.722;9.316;2022-07-29T11:30:51;9.90;;;6.20;;
2784;SDS011;57944;48.722;9.316;2022-07-29T11:33:27;13.60;;;5.70;;
2784;SDS011;57944;48.722;9.316;2022-07-29T11:36:20;3.50;;;2.60;;
2784;SDS011;57944;48.722;9.316;2022-07-29T11:38:56;1.97;;;0.67;;
2784;SDS011;57944;48.722;9.316;2022-07-29T11:45:10;1.90;;;0.60;;
2784;SDS011;57944;48.722;9.316;2022-07-29T11:48:06;1.90;;;0.60;;
2784;SDS011;57944;48.722;9.316;2022-07-29T11:50:55;1.90;;;0.60;;
2784;SDS011;57944;48.722;9.316;2022-07-29T11:53:30;1.90;;;0.70;;
2784;SDS011;57944;48.722;9.316;2022-07-29T11:56:02;1.93;;;0.77;;
2784;SDS011;57944;48.722;9.316;2022-07-29T11:58:42;1.93;;;0.70;;
2784;SDS011;57944;48.722;9.316;2022-07-29T12:01:13;1.90;;;0.60;;
2784;SDS011;57944;48.722;9.316;2022-07-29T12:03:47;1.90;;;0.60;;
2784;SDS011;57944;48.722;9.316;2022-07-29T12:06:33;1.90;;;0.70;;
2784;SDS011;57944;48.722;9.316;2022-07-29T12:09:09;1.90;;;0.60;;
2784;SDS011;57944;48.722;9.316;2022-07-29T12:11:40;1.90;;;0.60;;
2784;SDS011;57944;48.722;9.316;2022-07-29T12:14:25;1.90;;;0.60;;
2784;SDS011;57944;48.722;9.316;2022-07-29T12:16:57;2.20;;;1.00;;
2784;SDS011;57944;48.722;9.316;2022-07-29T12:19:33;2.00;;;1.10;;
2784;SDS011;57944;48.722;9.316;2022-07-29T12:22:23;1.90;;;0.60;;
2784;SDS011;57944;48.722;9.316;2022-07-29T12:25:00;1.90;;;0.60;;
2784;SDS011;57944;48.722;9.316;2022-07-29T12:27:59;1.90;;;0.60;;
2784;SDS011;57944;48.722;9.316;2022-07-29T12:30:36;1.90;;;0.60;;
2784;SDS011;57944;48.722;9.316;2022-07-29T12:33:14;2.00;;;0.90;;
2784;SDS011;57944;48.722;9.316;2022-07-29T12:35:50;1.90;;;0.60;;
2784;SDS011;57944;48.722;9.316;2022-07-29T12:38:33;1.90;;;0.60;;
2784;SDS011;57944;48.722;9.316;2022-07-29T12:41:06;1.90;;;0.60;;
2784;SDS011;57944;48.722;9.316;2022-07-29T12:43:36;1.90;;;0.70;;
2784;SDS011;57944;48.722;9.316;2022-07-29T12:46:11;1.90;;;0.70;;
2784;SDS011;57944;48.722;9.316;2022-07-29T12:48:43;1.90;;;0.60;;
2784;SDS011;57944;48.722;9.316;2022-07-29T12:51:13;1.90;;;0.60;;
2784;SDS011;57944;48.722;9.316;2022-07-29T12:56:36;1.90;;;0.60;;
2784;SDS011;57944;48.722;9.316;2022-07-29T12:59:13;1.90;;;0.60;;
2784;SDS011;57944;48.722;9.316;2022-07-29T13:01:46;1.90;;;0.70;;
2784;SDS011;57944;48.722;9.316;2022-07-29T13:04:25;1.93;;;0.70;;
2784;SDS011;57944;48.722;9.316;2022-07-29T13:06:59;1.90;;;0.60;;
2784;SDS011;57944;48.722;9.316;2022-07-29T13:09:36;1.90;;;0.67;;
2784;SDS011;57944;48.722;9.316;2022-07-29T13:12:11;24.43;;;22.40;;
2784;SDS011;57944;48.722;9.316;2022-07-29T13:14:44;1.90;;;0.60;;
2784;SDS011;57944;48.722;9.316;2022-07-29T13:17:17;1.90;;;0.60;;
2784;SDS011;57944;48.722;9.316;2022-07-29T13:19:49;1.93;;;0.60;;
2784;SDS011;57944;48.722;9.316;2022-07-29T13:22:22;2.20;;;1.43;;
2784;SDS011;57944;48.722;9.316;2022-07-29T13:24:55;1.90;;;0.60;;
2784;SDS011;57944;48.722;9.316;2022-07-29T13:27:31;1.90;;;0.60;;
2784;SDS011;57944;48.722;9.316;2022-07-29T13:30:04;1.90;;;0.70;;
2784;SDS011;57944;48.722;9.316;2022-07-29T13:32:38;1.90;;;0.60;;
2784;SDS011;57944;48.722;9.316;2022-07-29T13:35:09;1.90;;;0.60;;
2784;SDS011;57944;48.722;9.316;2022-07-29T13:37:40;1.90;;;0.70;;
2784;SDS011;57944;48.722;9.316;2022-07-29T13:40:10;1.90;;;0.60;;
2784;SDS011;57944;48.722;9.316;2022-07-29T13:42:44;1.90;;;0.63;;
2784;SDS011;57944;48.722;9.316;2022-07-29T13:45:14;2.20;;;1.03;;
2784;SDS011;57944;48.722;9.316;2022-07-29T13:47:45;1.93;;;0.70;;
2784;SDS011;57944;48.722;9.316;2022-07-29T13:50:15;1.90;;;0.60;;
2784;SDS011;57944;48.722;9.316;2022-07-29T13:52:45;1.90;;;0.60;;
2784;SDS011;57944;48.722;9.316;2022-07-29T13:55:16;1.90;;;0.60;;
2784;SDS011;57944;48.722;9.316;2022-07-29T13:57:49;1.90;;;0.70;;
2784;SDS011;57944;48.722;9.316;2022-07-29T14:00:20;1.90;;;0.70;;
2784;SDS011;57944;48.722;9.316;2022-07-29T14:02:50;2.27;;;0.80;;
2784;SDS011;57944;48.722;9.316;2022-07-29T14:05:20;2.10;;;1.17;;
2784;SDS011;57944;48.722;9.316;2022-07-29T14:07:50;1.90;;;0.60;;
2784;SDS011;57944;48.722;9.316;2022-07-29T14:10:20;2.30;;;1.20;;
2784;SDS011;57944;48.722;9.316;2022-07-29T14:12:53;1.90;;;0.60;;
2784;SDS011;57944;48.722;9.316;2022-07-29T14:15:23;2.57;;;1.63;;
2784;SDS011;57944;48.722;9.316;2022-07-29T14:17:53;2.00;;;0.70;;
2784;SDS011;57944;48.722;9.316;2022-07-29T14:20:23;2.00;;;0.60;;
2784;SDS011;57944;48.722;9.316;2022-07-29T14:22:56;2.00;;;0.80;;
2784;SDS011;57944;48.722;9.316;2022-07-29T14:25:27;2.00;;;0.63;;
2784;SDS011;57944;48.722;9.316;2022-07-29T14:28:01;2.17;;;1.03;;
2784;SDS011;57944;48.722;9.316;2022-07-29T14:30:31;2.10;;;1.03;;
2784;SDS011;57944;48.722;9.316;2022-07-29T14:33:01;1.97;;;0.60;;
2784;SDS011;57944;48.722;9.316;2022-07-29T14:35:31;2.00;;;0.70;;
2784;SDS011;57944;48.722;9.316;2022-07-29T14:38:01;2.00;;;0.87;;
2784;SDS011;57944;48.722;9.316;2022-07-29T14:40:32;1.93;;;0.60;;
2784;SDS011;57944;48.722;9.316;2022-07-29T14:43:05;2.00;;;0.60;;
2784;SDS011;57944;48.722;9.316;2022-07-29T14:45:35;1.97;;;0.60;;
2784;SDS011;57944;48.722;9.316;2022-07-29T14:48:05;1.97;;;0.60;;
2784;SDS011;57944;48.722;9.316;2022-07-29T14:50:35;2.00;;;0.60;;
2784;SDS011;57944;48.722;9.316;2022-07-29T14:53:05;3.10;;;2.23;;
2784;SDS011;57944;48.722;9.316;2022-07-29T14:55:35;2.10;;;0.90;;
2784;SDS011;57944;48.722;9.316;2022-07-29T14:58:08;2.00;;;0.70;;
2784;SDS011;57944;48.722;9.316;2022-07-29T15:00:42;2.00;;;0.60;;
2784;SDS011;57944;48.722;9.316;2022-07-29T15:03:12;1.97;;;0.60;;
2784;SDS011;57944;48.722;9.316;2022-07-29T15:05:49;2.00;;;0.80;;
2784;SDS011;57944;48.722;9.316;2022-07-29T15:08:20;2.00;;;0.60;;
2784;SDS011;57944;48.722;9.316;2022-07-29T15:10:51;2.00;;;0.60;;
2784;SDS011;57944;48.722;9.316;2022-07-29T15:13:26;1.93;;;0.70;;
2784;SDS011;57944;48.722;9.316;2022-07-29T15:15:56;2.00;;;0.60;;
2784;SDS011;57944;48.722;9.316;2022-07-29T15:18:26;2.00;;;0.70;;
2784;SDS011;57944;48.722;9.316;2022-07-29T15:20:57;2.10;;;0.90;;
2784;SDS011;57944;48.722;9.316;2022-07-29T15:23:28;2.10;;;0.70;;
2784;SDS011;57944;48.722;9.316;2022-07-29T15:25:58;2.10;;;1.07;;
2784;SDS011;57944;48.722;9.316;2022-07-29T15:28:31;1.93;;;0.60;;
2784;SDS011;57944;48.722;9.316;2022-07-29T15:31:01;1.90;;;0.60;;
2784;SDS011;57944;48.722;9.316;2022-07-29T15:33:31;2.00;;;0.70;;
2784;SDS011;57944;48.722;9.316;2022-07-29T15:36:01;2.00;;;0.60;;
2784;SDS011;57944;48.722;9.316;2022-07-29T15:38:32;2.00;;;0.60;;
2784;SDS011;57944;48.722;9.316;2022-07-29T15:41:07;1.97;;;0.60;;
2784;SDS011;57944;48.722;9.316;2022-07-29T15:43:40;2.00;;;0.70;;
2784;SDS011;57944;48.722;9.316;2022-07-29T15:46:14;1.90;;;0.60;;
2784;SDS011;57944;48.722;9.316;2022-07-29T15:48:58;1.90;;;0.60;;
2784;SDS011;57944;48.722;9.316;2022-07-29T15:51:29;11.17;;;9.57;;